createdAt,value
2018-11-27T00:00:20.881Z,84.20
2018-11-27T00:02:49.127Z,84.10
2018-11-27T00:05:17.387Z,84.20
2018-11-27T00:07:45.627Z,84.40
2018-11-27T00:10:13.871Z,84.10
2018-11-27T00:12:42.343Z,83.90
2018-11-27T00:15:11.677Z,84.10
2018-11-27T00:17:39.948Z,84.30
2018-11-27T00:20:11.071Z,84.10
2018-11-27T00:22:40.038Z,84.10
2018-11-27T00:25:12.285Z,84.10
2018-11-27T00:27:40.540Z,83.90
2018-11-27T00:30:11.068Z,83.90
2018-11-27T00:32:39.339Z,83.80
2018-11-27T00:35:09.184Z,83.70
2018-11-27T00:37:37.440Z,83.60
2018-11-27T00:40:08.468Z,83.70
2018-11-27T00:42:36.743Z,83.60
2018-11-27T00:45:07.205Z,83.60
2018-11-27T00:47:35.448Z,82.90
2018-11-27T00:50:04.511Z,83.40
2018-11-27T00:52:33.413Z,83.40
2018-11-27T00:55:01.675Z,83.50
2018-11-27T00:57:29.936Z,83.50
2018-11-27T00:59:58.185Z,83.50
2018-11-27T01:02:26.505Z,83.40
2018-11-27T01:04:54.763Z,83.50
2018-11-27T01:07:23.060Z,83.50
2018-11-27T01:09:51.360Z,83.40
2018-11-27T01:12:19.635Z,83.50
2018-11-27T01:14:47.888Z,83.40
2018-11-27T01:17:16.175Z,83.40
2018-11-27T01:19:44.425Z,83.20
2018-11-27T01:22:12.680Z,83.00
2018-11-27T01:24:40.959Z,83.20
2018-11-27T01:27:09.244Z,83.20
2018-11-27T01:29:37.497Z,83.20
2018-11-27T01:32:05.935Z,83.20
2018-11-27T01:34:34.181Z,83.00
2018-11-27T01:37:02.452Z,83.10
2018-11-27T01:39:30.752Z,83.10
2018-11-27T01:41:59.050Z,82.60
2018-11-27T01:44:27.303Z,83.10
2018-11-27T01:46:55.571Z,83.20
2018-11-27T01:49:23.855Z,83.20
2018-11-27T01:51:52.113Z,83.30
2018-11-27T01:54:20.361Z,83.30
2018-11-27T01:56:48.635Z,83.10
2018-11-27T01:59:16.917Z,83.20
2018-11-27T02:01:45.178Z,83.20
2018-11-27T02:04:13.487Z,83.30
2018-11-27T02:06:41.764Z,83.30
2018-11-27T02:09:10.039Z,83.20
2018-11-27T02:11:38.304Z,83.10
2018-11-27T02:14:06.568Z,83.00
2018-11-27T02:16:34.854Z,83.00
2018-11-27T02:19:03.129Z,82.90
2018-11-27T02:21:31.450Z,82.70
2018-11-27T02:23:59.729Z,82.80
2018-11-27T02:26:28.004Z,82.80
2018-11-27T02:28:56.252Z,82.80
2018-11-27T02:31:24.515Z,82.70
2018-11-27T02:33:52.785Z,82.90
2018-11-27T02:36:21.052Z,82.70
2018-11-27T02:38:49.314Z,82.50
2018-11-27T02:41:17.688Z,82.80
2018-11-27T02:43:45.965Z,82.70
2018-11-27T02:46:14.221Z,82.90
2018-11-27T02:48:42.502Z,82.80
2018-11-27T02:51:10.760Z,82.60
2018-11-27T02:53:39.011Z,81.30
2018-11-27T02:56:07.320Z,82.70
2018-11-27T02:58:35.601Z,82.90
2018-11-27T03:01:03.892Z,82.70
2018-11-27T03:03:32.182Z,82.90
2018-11-27T03:06:00.443Z,82.80
2018-11-27T03:08:28.692Z,82.80
2018-11-27T03:10:56.972Z,82.90
2018-11-27T03:13:25.273Z,81.50
2018-11-27T03:15:53.547Z,83.00
2018-11-27T03:18:21.852Z,82.90
2018-11-27T03:20:50.125Z,83.00
2018-11-27T03:23:18.393Z,83.10
2018-11-27T03:25:46.664Z,83.10
2018-11-27T03:28:14.943Z,83.10
2018-11-27T03:30:43.243Z,83.00
2018-11-27T03:33:11.517Z,83.10
2018-11-27T03:35:39.787Z,83.10
2018-11-27T03:38:08.072Z,83.10
2018-11-27T03:40:36.370Z,83.00
2018-11-27T03:43:04.672Z,83.10
2018-11-27T03:45:32.951Z,83.00
2018-11-27T03:48:01.233Z,83.10
2018-11-27T03:50:30.585Z,83.00
2018-11-27T03:52:58.847Z,82.90
2018-11-27T03:55:27.109Z,82.00
2018-11-27T03:57:55.392Z,82.80
2018-11-27T04:00:25.574Z,82.90
2018-11-27T04:03:00.535Z,83.10
2018-11-27T04:05:28.824Z,82.80
2018-11-27T04:07:57.162Z,82.50
2018-11-27T04:10:25.465Z,82.90
2018-11-27T04:12:53.765Z,82.80
2018-11-27T04:15:22.104Z,82.20
2018-11-27T04:17:50.363Z,81.20
2018-11-27T04:20:18.650Z,82.00
2018-11-27T04:22:46.884Z,83.20
2018-11-27T04:25:16.148Z,83.10
2018-11-27T04:27:45.099Z,82.80
2018-11-27T04:30:15.358Z,81.00
2018-11-27T04:32:43.758Z,82.20
2018-11-27T04:35:14.093Z,83.20
2018-11-27T04:37:42.365Z,83.10
2018-11-27T04:40:18.155Z,83.20
2018-11-27T04:42:46.504Z,81.50
2018-11-27T04:45:16.929Z,83.90
2018-11-27T04:47:45.255Z,83.20
2018-11-27T04:50:14.446Z,83.10
2018-11-27T04:52:42.905Z,83.20
2018-11-27T04:55:14.046Z,81.80
2018-11-27T04:57:42.600Z,83.00
2018-11-27T05:00:14.092Z,83.30
2018-11-27T05:02:42.370Z,82.00
2018-11-27T05:05:11.070Z,83.10
2018-11-27T05:07:39.456Z,83.30
2018-11-27T05:10:12.788Z,83.00
2018-11-27T05:12:41.576Z,83.20
2018-11-27T05:15:15.568Z,83.10
2018-11-27T05:17:47.915Z,81.50
2018-11-27T05:20:13.128Z,83.30
2018-11-27T05:22:41.407Z,83.10
2018-11-27T05:25:14.401Z,83.30
2018-11-27T05:27:44.719Z,83.30
2018-11-27T05:30:14.125Z,83.30
2018-11-27T05:32:42.428Z,83.20
2018-11-27T05:35:12.077Z,83.40
2018-11-27T05:37:41.212Z,83.30
2018-11-27T05:40:11.347Z,83.30
2018-11-27T05:42:39.644Z,83.10
2018-11-27T05:45:16.961Z,83.00
2018-11-27T05:47:45.425Z,83.20
2018-11-27T05:50:14.882Z,83.10
2018-11-27T05:52:43.130Z,83.20
2018-11-27T05:55:12.207Z,83.10
2018-11-27T05:57:41.607Z,83.20
2018-11-27T06:00:16.806Z,83.00
2018-11-27T06:02:45.541Z,83.10
2018-11-27T06:05:15.859Z,83.00
2018-11-27T06:07:44.212Z,83.10
2018-11-27T06:10:14.621Z,83.10
2018-11-27T06:12:42.932Z,83.10
2018-11-27T06:15:16.403Z,83.10
2018-11-27T06:17:45.244Z,83.20
2018-11-27T06:20:16.700Z,83.10
2018-11-27T06:22:45.012Z,82.80
2018-11-27T06:25:15.435Z,83.10
2018-11-27T06:27:43.926Z,83.10
2018-11-27T06:30:14.648Z,83.00
2018-11-27T06:32:43.029Z,83.00
2018-11-27T06:35:12.672Z,83.10
2018-11-27T06:37:40.988Z,83.00
2018-11-27T06:40:16.544Z,83.10
2018-11-27T06:42:44.822Z,83.10
2018-11-27T06:45:16.856Z,83.00
2018-11-27T06:47:45.903Z,83.00
2018-11-27T06:50:14.911Z,83.00
2018-11-27T06:55:20.857Z,83.10
2018-11-27T06:57:49.124Z,81.30
2018-11-27T07:00:21.734Z,81.00
2018-11-27T07:02:50.001Z,80.60
2018-11-27T07:05:18.272Z,80.80
2018-11-27T07:07:46.800Z,80.80
2018-11-27T07:10:26.155Z,80.90
2018-11-27T07:12:56.971Z,81.10
2018-11-27T07:15:25.264Z,81.10
2018-11-27T07:17:53.508Z,81.20
2018-11-27T07:20:21.771Z,81.20
2018-11-27T07:22:50.091Z,81.30
2018-11-27T07:25:21.295Z,81.40
2018-11-27T07:27:50.476Z,81.30
2018-11-27T07:30:22.735Z,81.30
2018-11-27T07:32:51.032Z,84.50
2018-11-27T07:35:19.789Z,85.00
2018-11-27T07:37:48.179Z,85.90
2018-11-27T07:40:26.580Z,86.80
2018-11-27T07:42:56.285Z,87.20
2018-11-27T07:45:25.013Z,87.40
2018-11-27T07:47:53.288Z,87.50
2018-11-27T07:50:21.576Z,87.40
2018-11-27T07:52:49.819Z,87.60
2018-11-27T07:55:19.068Z,87.30
2018-11-27T07:57:47.391Z,87.30
2018-11-27T08:00:16.729Z,86.90
2018-11-27T08:02:46.216Z,86.80
2018-11-27T08:05:15.850Z,86.80
2018-11-27T08:07:45.752Z,86.70
2018-11-27T08:10:15.371Z,86.40
2018-11-27T08:12:43.652Z,86.20
2018-11-27T08:15:15.220Z,86.30
2018-11-27T08:17:43.623Z,85.90
2018-11-27T08:20:14.856Z,85.80
2018-11-27T08:22:43.168Z,85.60
2018-11-27T08:25:12.632Z,85.40
2018-11-27T08:27:40.974Z,85.30
2018-11-27T08:30:11.768Z,85.30
2018-11-27T08:32:40.025Z,85.20
2018-11-27T08:35:16.290Z,85.30
2018-11-27T08:37:45.299Z,85.00
2018-11-27T08:40:15.700Z,84.70
2018-11-27T08:42:43.972Z,84.90
2018-11-27T08:45:13.412Z,84.70
2018-11-27T08:47:41.915Z,84.60
2018-11-27T08:50:12.525Z,84.40
2018-11-27T08:52:46.437Z,84.40
2018-11-27T08:55:11.843Z,84.00
2018-11-27T08:57:40.652Z,83.90
2018-11-27T09:00:13.523Z,83.50
2018-11-27T09:02:41.815Z,83.60
2018-11-27T09:05:10.597Z,83.40
2018-11-27T09:07:38.900Z,83.40
2018-11-27T09:10:10.560Z,83.20
2018-11-27T09:12:38.842Z,83.30
2018-11-27T09:15:08.457Z,83.70
2018-11-27T09:17:36.723Z,82.90
2018-11-27T09:20:07.464Z,82.80
2018-11-27T09:22:35.746Z,82.70
2018-11-27T09:25:05.056Z,82.70
2018-11-27T09:27:33.320Z,82.40
2018-11-27T09:30:01.613Z,82.20
2018-11-27T09:32:29.880Z,82.40
2018-11-27T09:34:58.196Z,82.10
2018-11-27T09:37:26.461Z,82.20
2018-11-27T09:39:54.760Z,82.00
2018-11-27T09:42:23.054Z,81.90
2018-11-27T09:44:51.297Z,81.90
2018-11-27T09:47:19.564Z,81.80
2018-11-27T09:49:47.848Z,81.80
2018-11-27T09:52:16.112Z,81.80
2018-11-27T09:54:44.389Z,81.70
2018-11-27T09:57:12.696Z,82.10
2018-11-27T09:59:40.952Z,82.10
2018-11-27T10:02:09.192Z,81.20
2018-11-27T10:04:37.477Z,81.10
2018-11-27T10:07:05.788Z,81.20
2018-11-27T10:09:34.079Z,81.20
2018-11-27T10:12:02.323Z,81.10
2018-11-27T10:14:30.587Z,81.10
2018-11-27T10:16:58.912Z,81.00
2018-11-27T10:19:28.241Z,80.80
2018-11-27T10:21:55.475Z,80.80
2018-11-27T10:24:23.732Z,80.60
2018-11-27T10:26:51.987Z,80.70
2018-11-27T10:29:20.281Z,80.70
2018-11-27T10:31:48.604Z,80.50
2018-11-27T10:34:16.900Z,80.40
2018-11-27T10:36:45.225Z,80.20
2018-11-27T10:39:13.507Z,80.20
2018-11-27T10:41:41.778Z,80.10
2018-11-27T10:44:10.030Z,80.00
2018-11-27T10:46:38.303Z,80.00
2018-11-27T10:49:06.752Z,80.00
2018-11-27T10:51:35.077Z,80.20
2018-11-27T10:54:03.347Z,80.00
2018-11-27T10:56:31.630Z,79.80
2018-11-27T10:58:59.916Z,79.70
2018-11-27T11:01:33.483Z,79.70
2018-11-27T11:04:01.796Z,79.60
2018-11-27T11:06:30.088Z,79.60
2018-11-27T11:08:58.364Z,79.30
2018-11-27T11:11:26.623Z,79.50
2018-11-27T11:13:54.891Z,79.60
2018-11-27T11:16:23.197Z,79.60
2018-11-27T11:18:51.455Z,79.50
2018-11-27T11:21:19.767Z,79.40
2018-11-27T11:23:48.048Z,79.30
2018-11-27T11:26:16.513Z,79.40
2018-11-27T11:28:45.154Z,79.40
2018-11-27T11:31:13.487Z,79.30
2018-11-27T11:33:41.787Z,80.00
2018-11-27T11:36:10.047Z,79.20
2018-11-27T11:38:38.316Z,79.10
2018-11-27T11:41:06.996Z,79.00
2018-11-27T11:43:35.423Z,79.00
2018-11-27T11:46:03.724Z,79.10
2018-11-27T11:48:32.015Z,79.00
2018-11-27T11:51:00.276Z,78.90
2018-11-27T11:53:28.532Z,78.80
2018-11-27T11:55:56.875Z,79.60
2018-11-27T11:58:25.147Z,78.80
2018-11-27T12:00:54.594Z,78.70
2018-11-27T12:03:22.900Z,78.90
2018-11-27T12:05:51.220Z,79.00
2018-11-27T12:08:19.489Z,78.90
2018-11-27T12:10:47.731Z,78.90
2018-11-27T12:13:16.042Z,78.80
2018-11-27T12:15:44.352Z,78.90
2018-11-27T12:18:12.616Z,78.80
2018-11-27T12:20:41.296Z,78.80
2018-11-27T12:23:10.721Z,79.60
2018-11-27T12:25:39.608Z,78.90
2018-11-27T12:28:14.357Z,78.70
2018-11-27T12:30:37.189Z,79.10
2018-11-27T12:33:06.016Z,77.50
2018-11-27T12:35:34.394Z,77.90
2018-11-27T12:38:02.672Z,78.20
2018-11-27T12:40:30.964Z,78.40
2018-11-27T12:43:04.360Z,78.50
2018-11-27T12:45:33.356Z,78.20
2018-11-27T12:48:02.734Z,78.70
2018-11-27T12:50:37.166Z,79.00
2018-11-27T12:53:06.576Z,77.90
2018-11-27T12:55:35.253Z,78.10
2018-11-27T12:58:03.516Z,79.00
2018-11-27T13:00:31.803Z,79.30
2018-11-27T13:03:00.084Z,79.40
2018-11-27T13:05:33.315Z,79.40
2018-11-27T13:08:02.984Z,79.50
2018-11-27T13:10:31.272Z,79.60
2018-11-27T13:12:59.582Z,79.60
2018-11-27T13:15:27.902Z,79.60
2018-11-27T13:17:56.147Z,79.70
2018-11-27T13:20:24.543Z,79.60
2018-11-27T13:22:53.232Z,79.60
2018-11-27T13:25:22.994Z,79.50
2018-11-27T13:27:56.811Z,79.70
2018-11-27T13:30:27.577Z,79.70
2018-11-27T13:33:00.831Z,79.70
2018-11-27T13:35:29.157Z,79.80
2018-11-27T13:37:57.482Z,80.10
2018-11-27T13:40:25.827Z,80.00
2018-11-27T13:42:54.103Z,79.70
2018-11-27T13:45:23.055Z,80.00
2018-11-27T13:47:51.493Z,80.10
2018-11-27T13:50:19.892Z,80.00
2018-11-27T13:52:49.052Z,80.00
2018-11-27T13:55:20.339Z,80.00
2018-11-27T13:57:48.683Z,80.00
2018-11-27T14:00:17.988Z,80.00
2018-11-27T14:02:48.863Z,80.00
2018-11-27T14:05:18.486Z,80.00
2018-11-27T14:07:46.850Z,80.00
2018-11-27T14:10:16.991Z,79.80
2018-11-27T14:12:45.765Z,79.80
2018-11-27T14:15:19.092Z,79.80
2018-11-27T14:17:53.696Z,80.00
2018-11-27T14:20:22.064Z,80.00
2018-11-27T14:22:51.008Z,80.00
2018-11-27T14:25:20.308Z,80.10
2018-11-27T14:27:55.420Z,80.00
2018-11-27T14:30:24.789Z,79.80
2018-11-27T14:32:54.048Z,80.10
2018-11-27T14:35:23.368Z,80.10
2018-11-27T14:37:54.204Z,80.00
2018-11-27T14:40:26.480Z,80.10
2018-11-27T14:42:55.582Z,80.20
2018-11-27T14:45:28.464Z,80.20
2018-11-27T14:47:57.943Z,80.10
2018-11-27T14:50:26.236Z,80.20
2018-11-27T14:52:54.535Z,80.30
2018-11-27T14:55:30.517Z,80.30
2018-11-27T14:57:58.827Z,80.30
2018-11-27T15:00:27.391Z,80.20
2018-11-27T15:02:55.838Z,80.10
2018-11-27T15:05:34.203Z,80.20
2018-11-27T15:08:03.252Z,80.20
2018-11-27T15:10:31.515Z,80.10
2018-11-27T15:12:59.819Z,80.10
2018-11-27T15:15:28.129Z,80.10
2018-11-27T15:17:56.435Z,80.10
2018-11-27T15:20:24.704Z,80.10
2018-11-27T15:22:53.011Z,80.10
2018-11-27T15:25:21.277Z,80.20
2018-11-27T15:27:49.964Z,80.10
2018-11-27T15:30:21.693Z,80.10
2018-11-27T15:32:50.752Z,80.20
2018-11-27T15:35:19.016Z,80.20
2018-11-27T15:37:47.275Z,80.10
2018-11-27T15:40:18.764Z,80.00
2018-11-27T15:42:47.065Z,80.10
2018-11-27T15:45:22.430Z,80.00
2018-11-27T15:47:50.918Z,80.00
2018-11-27T15:50:19.204Z,80.00
2018-11-27T15:52:47.618Z,79.90
2018-11-27T15:55:21.207Z,79.70
2018-11-27T15:57:51.654Z,79.70
2018-11-27T16:00:20.547Z,79.30
2018-11-27T16:02:49.191Z,79.20
2018-11-27T16:05:17.808Z,79.20
2018-11-27T16:07:46.192Z,79.20
2018-11-27T16:10:15.630Z,79.30
2018-11-27T16:12:43.908Z,79.40
2018-11-27T16:15:16.172Z,79.50
2018-11-27T16:17:44.576Z,79.60
2018-11-27T16:20:15.028Z,79.70
2018-11-27T16:22:47.561Z,80.30
2018-11-27T16:25:19.520Z,79.60
2018-11-27T16:27:47.843Z,79.70
2018-11-27T16:30:24.948Z,79.80
2018-11-27T16:32:53.232Z,79.80
2018-11-27T16:35:21.491Z,79.80
2018-11-27T16:37:51.173Z,79.90
2018-11-27T16:40:20.621Z,79.90
2018-11-27T16:42:48.895Z,80.00
2018-11-27T16:45:19.336Z,80.00
2018-11-27T16:47:47.886Z,80.00
2018-11-27T16:50:16.784Z,80.00
2018-11-27T16:52:45.512Z,79.90
2018-11-27T16:55:14.760Z,79.90
2018-11-27T16:57:43.987Z,79.90
2018-11-27T17:00:19.810Z,80.00
2018-11-27T17:02:50.402Z,80.00
2018-11-27T17:05:18.434Z,80.10
2018-11-27T17:07:46.693Z,80.10
2018-11-27T17:10:15.870Z,80.00
2018-11-27T17:12:44.902Z,79.60
2018-11-27T17:15:15.617Z,80.00
2018-11-27T17:17:46.161Z,80.00
2018-11-27T17:20:19.847Z,80.00
2018-11-27T17:22:50.070Z,78.60
2018-11-27T17:25:18.348Z,79.30
2018-11-27T17:27:46.688Z,81.20
2018-11-27T17:30:42.132Z,82.90
2018-11-27T17:33:20.957Z,84.60
2018-11-27T17:35:49.229Z,85.80
2018-11-27T17:38:17.657Z,87.90
2018-11-27T17:40:45.982Z,88.10
2018-11-27T17:43:14.640Z,88.70
2018-11-27T17:45:43.023Z,89.40
2018-11-27T17:48:11.340Z,89.90
2018-11-27T17:50:39.614Z,90.10
2018-11-27T17:53:08.147Z,90.10
2018-11-27T17:55:36.471Z,89.80
2018-11-27T17:58:05.688Z,91.50
2018-11-27T18:00:34.062Z,92.00
2018-11-27T18:03:05.132Z,91.60
2018-11-27T18:05:33.631Z,91.30
2018-11-27T18:08:02.377Z,91.40
2018-11-27T18:10:30.882Z,91.60
2018-11-27T18:12:59.167Z,91.40
2018-11-27T18:15:27.638Z,91.20
2018-11-27T18:17:55.917Z,91.10
2018-11-27T18:20:24.692Z,91.00
2018-11-27T18:22:53.524Z,91.10
2018-11-27T18:25:21.899Z,91.20
2018-11-27T18:27:50.543Z,91.10
2018-11-27T18:30:21.211Z,91.10
2018-11-27T18:32:49.620Z,90.90
2018-11-27T18:35:20.028Z,91.00
2018-11-27T18:37:48.813Z,91.20
2018-11-27T18:40:17.871Z,90.90
2018-11-27T18:42:46.504Z,90.80
2018-11-27T18:45:20.776Z,90.70
2018-11-27T18:47:49.093Z,90.70
2018-11-27T18:50:17.772Z,90.80
2018-11-27T18:52:46.056Z,90.80
2018-11-27T18:55:15.174Z,90.70
2018-11-27T18:57:44.173Z,91.10
2018-11-27T19:00:18.896Z,90.70
2018-11-27T19:02:47.316Z,90.80
2018-11-27T19:05:15.600Z,90.60
2018-11-27T19:07:43.873Z,90.70
2018-11-27T19:10:19.237Z,89.20
2018-11-27T19:12:47.954Z,85.20
2018-11-27T19:15:17.780Z,83.80
2018-11-27T19:17:47.385Z,85.80
2018-11-27T19:20:15.677Z,86.90
2018-11-27T19:22:43.928Z,87.70
2018-11-27T19:25:13.303Z,88.30
2018-11-27T19:27:41.844Z,88.70
2018-11-27T19:30:16.218Z,88.90
2018-11-27T19:32:43.372Z,89.00
2018-11-27T19:35:12.966Z,89.20
2018-11-27T19:37:41.260Z,89.30
2018-11-27T19:40:11.846Z,89.30
2018-11-27T19:42:40.111Z,89.30
2018-11-27T19:45:13.130Z,89.40
2018-11-27T19:47:41.560Z,89.30
2018-11-27T19:50:11.734Z,89.60
2018-11-27T19:52:40.612Z,89.70
2018-11-27T19:55:14.447Z,90.00
2018-11-27T19:57:42.762Z,90.00
2018-11-27T20:00:15.394Z,90.00
2018-11-27T20:02:43.708Z,90.00
2018-11-27T20:05:13.215Z,90.00
2018-11-27T20:07:41.520Z,90.00
2018-11-27T20:10:12.860Z,90.10
2018-11-27T20:12:41.184Z,90.00
2018-11-27T20:15:16.782Z,90.00
2018-11-27T20:17:43.987Z,90.00
2018-11-27T20:20:13.330Z,90.00
2018-11-27T20:22:41.691Z,90.00
2018-11-27T20:25:12.137Z,90.00
2018-11-27T20:27:40.448Z,90.00
2018-11-27T20:30:15.211Z,90.00
2018-11-27T20:32:52.548Z,89.90
2018-11-27T20:35:20.812Z,90.00
2018-11-27T20:37:50.199Z,89.90
2018-11-27T20:40:19.102Z,90.00
2018-11-27T20:42:47.540Z,90.00
2018-11-27T20:45:19.558Z,90.00
2018-11-27T20:47:48.436Z,90.00
2018-11-27T20:50:18.783Z,90.00
2018-11-27T20:52:47.284Z,90.00
2018-11-27T20:55:15.680Z,89.90
2018-11-27T20:57:47.812Z,90.00
2018-11-27T21:00:20.045Z,90.00
2018-11-27T21:02:48.465Z,89.80
2018-11-27T21:05:16.754Z,90.00
2018-11-27T21:07:45.063Z,89.90
2018-11-27T21:10:14.116Z,89.90
2018-11-27T21:12:43.100Z,90.00
2018-11-27T21:15:12.571Z,90.00
2018-11-27T21:17:40.844Z,90.00
2018-11-27T21:20:11.280Z,89.90
2018-11-27T21:22:39.563Z,89.90
2018-11-27T21:25:14.800Z,90.00
2018-11-27T21:27:44.283Z,90.00
2018-11-27T21:30:13.904Z,90.00
2018-11-27T21:32:42.184Z,90.00
2018-11-27T21:35:12.524Z,90.10
2018-11-27T21:37:40.864Z,90.00
2018-11-27T21:40:15.012Z,90.10
2018-11-27T21:42:43.298Z,90.10
2018-11-27T21:45:20.476Z,90.00
2018-11-27T21:47:49.368Z,90.00
2018-11-27T21:50:18.676Z,90.10
2018-11-27T21:52:46.956Z,90.10
2018-11-27T21:55:15.535Z,90.10
2018-11-27T21:57:44.221Z,90.00
2018-11-27T22:00:15.097Z,90.10
2018-11-27T22:02:43.395Z,90.20
2018-11-27T22:05:12.256Z,90.10
2018-11-27T22:07:40.579Z,90.10
2018-11-27T22:10:12.723Z,90.10
2018-11-27T22:12:42.114Z,90.10
2018-11-27T22:15:15.691Z,90.10
2018-11-27T22:17:43.982Z,89.80
2018-11-27T22:20:12.352Z,82.70
2018-11-27T22:22:40.633Z,82.80
2018-11-27T22:25:10.095Z,84.00
2018-11-27T22:27:38.384Z,84.60
2018-11-27T22:30:14.915Z,84.80
2018-11-27T22:32:44.443Z,85.30
2018-11-27T22:35:12.788Z,85.70
2018-11-27T22:37:41.041Z,86.00
2018-11-27T22:40:11.530Z,86.20
2018-11-27T22:42:39.809Z,86.50
2018-11-27T22:45:10.150Z,86.90
2018-11-27T22:47:38.607Z,87.20
2018-11-27T22:50:11.236Z,87.30
2018-11-27T22:52:39.504Z,87.60
2018-11-27T22:55:08.404Z,87.80
2018-11-27T22:57:36.863Z,87.90
2018-11-27T23:00:10.303Z,88.00
2018-11-27T23:02:38.584Z,88.10
2018-11-27T23:05:06.851Z,88.20
2018-11-27T23:07:41.245Z,88.20
2018-11-27T23:10:10.021Z,88.10
2018-11-27T23:12:38.273Z,88.30
2018-11-27T23:15:08.340Z,88.50
2018-11-27T23:17:36.733Z,88.70
2018-11-27T23:20:09.090Z,88.80
2018-11-27T23:22:37.383Z,88.80
2018-11-27T23:25:07.209Z,88.90
2018-11-27T23:27:35.472Z,89.00
2018-11-27T23:30:04.388Z,89.00
2018-11-27T23:32:32.708Z,89.10
2018-11-27T23:35:00.969Z,89.00
2018-11-27T23:37:29.585Z,89.20
2018-11-27T23:39:57.871Z,89.20
2018-11-27T23:42:26.138Z,89.20
2018-11-27T23:44:54.427Z,89.30
2018-11-27T23:47:22.683Z,89.40
2018-11-27T23:49:50.943Z,89.30
2018-11-27T23:52:19.224Z,89.40
2018-11-27T23:54:47.499Z,89.30
2018-11-27T23:57:15.776Z,89.20
2018-11-27T23:59:44.025Z,89.40
